WEY30A LPCS-LPCS

Flight info

Callsign WEY30A
Flight time 0h 4m
Altitude 1000
Route CCAIS
Aircraft C152/L-V/N

Departure

Time 2026-04-23 19:16
Airport Cascais Airport (LPCS)

Arrival

Time 2026-04-23 19:20
Airport Cascais Airport (LPCS)
Time Latitude Longitude Altitude Speed Heading
2026-04-23 19:05 38.72319 -9.35269 328 ft 0 kts 151°
2026-04-23 19:12 38.72322 -9.35280 328 ft 2 kts 260°
2026-04-23 19:12 38.72312 -9.35321 328 ft 8 kts 272°
2026-04-23 19:12 38.72329 -9.35365 328 ft 0 kts 247°
2026-04-23 19:13 38.72328 -9.35369 328 ft 4 kts 246°
2026-04-23 19:14 38.72288 -9.35436 328 ft 13 kts 167°
2026-04-23 19:14 38.72171 -9.35394 328 ft 21 kts 164°
2026-04-23 19:14 38.71970 -9.35319 328 ft 33 kts 165°
2026-04-23 19:14 38.71820 -9.35255 328 ft 13 kts 144°
2026-04-23 19:15 38.71815 -9.35265 328 ft 11 kts 344°
2026-04-23 19:15 38.72082 -9.35365 337 ft 60 kts 345°
2026-04-23 19:15 38.72501 -9.35518 497 ft 62 kts 331°
2026-04-23 19:15 38.72900 -9.35695 673 ft 61 kts 329°
2026-04-23 19:16 38.73318 -9.35876 824 ft 64 kts 330°
2026-04-23 19:16 38.73728 -9.36080 975 ft 67 kts 328°
2026-04-23 19:16 38.74243 -9.36249 1008 ft 76 kts 342°
2026-04-23 19:17 38.74865 -9.36987 999 ft 70 kts 265°
2026-04-23 19:17 38.74674 -9.37520 1035 ft 69 kts 217°
2026-04-23 19:17 38.74157 -9.37511 946 ft 87 kts 162°
2026-04-23 19:17 38.73584 -9.37201 916 ft 87 kts 161°
2026-04-23 19:18 38.73038 -9.36903 919 ft 82 kts 164°
2026-04-23 19:18 38.72512 -9.36649 913 ft 81 kts 167°
2026-04-23 19:18 38.71971 -9.36424 925 ft 80 kts 169°
2026-04-23 19:18 38.71438 -9.36196 896 ft 80 kts 165°
2026-04-23 19:19 38.70759 -9.35408 719 ft 66 kts 85°
2026-04-23 19:19 38.70932 -9.34966 641 ft 52 kts
2026-04-23 19:20 38.71634 -9.35196 443 ft 55 kts 335°
2026-04-23 19:20 38.72004 -9.35332 328 ft 49 kts 342°
2026-04-23 19:20 38.72364 -9.35458 362 ft 64 kts 341°
2026-04-23 19:20 38.72787 -9.35557 577 ft 58 kts 346°
2026-04-23 19:21 38.73203 -9.35647 714 ft 65 kts 344°
2026-04-23 19:21 38.74141 -9.35965 951 ft 73 kts 333°
2026-04-23 19:21 38.74468 -9.36383 982 ft 70 kts 273°
2026-04-23 19:22 38.74375 -9.37010 968 ft 76 kts 248°
2026-04-23 19:22 38.73907 -9.37328 964 ft 86 kts 181°
2026-04-23 19:22 38.72729 -9.36792 918 ft 88 kts 161°
2026-04-23 19:23 38.72154 -9.36489 951 ft 90 kts 160°
2026-04-23 19:23 38.71568 -9.36171 946 ft 91 kts 166°
2026-04-23 19:23 38.71014 -9.35926 892 ft 76 kts 162°
2026-04-23 19:24 38.70824 -9.34960 718 ft 55 kts 28°
2026-04-23 19:24 38.71158 -9.35042 621 ft 52 kts 325°
2026-04-23 19:24 38.71858 -9.35280 342 ft 54 kts 336°
2026-04-23 19:25 38.72615 -9.35539 463 ft 65 kts 341°
2026-04-23 19:25 38.73521 -9.35836 780 ft 69 kts 347°
2026-04-23 19:26 38.74491 -9.36028 1006 ft 67 kts 336°
2026-04-23 19:26 38.74699 -9.36487 1024 ft 67 kts 261°
2026-04-23 19:27 38.73971 -9.37123 991 ft 85 kts 176°
2026-04-23 19:27 38.72219 -9.36416 941 ft 89 kts 163°
2026-04-23 19:28 38.71130 -9.35878 886 ft 72 kts 158°
2026-04-23 19:28 38.70773 -9.35024 713 ft 54 kts 30°
2026-04-23 19:29 38.71131 -9.35024 580 ft 57 kts 334°
2026-04-23 19:29 38.71878 -9.35287 340 ft 53 kts 341°
2026-04-23 19:30 38.72623 -9.35524 454 ft 65 kts 342°
2026-04-23 19:30 38.73064 -9.35630 627 ft 65 kts 346°
2026-04-23 19:30 38.73969 -9.35777 976 ft 64 kts 349°
2026-04-23 19:31 38.74423 -9.35819 1146 ft 64 kts 350°
2026-04-23 19:31 38.74737 -9.36115 1310 ft 60 kts 288°
2026-04-23 19:31 38.74671 -9.36675 1453 ft 68 kts 248°
2026-04-23 19:31 38.74245 -9.36959 1524 ft 78 kts 184°
2026-04-23 19:32 38.73677 -9.36810 1474 ft 87 kts 173°
2026-04-23 19:32 38.73072 -9.36660 1443 ft 89 kts 174°
2026-04-23 19:32 38.72509 -9.36429 1473 ft 82 kts 145°
2026-04-23 19:32 38.72298 -9.35770 1418 ft 82 kts 88°
2026-04-23 19:33 38.72302 -9.35097 1322 ft 77 kts 103°
2026-04-23 19:33 38.71967 -9.34582 1162 ft 70 kts 156°
2026-04-23 19:33 38.71121 -9.34550 878 ft 56 kts 240°
2026-04-23 19:34 38.71166 -9.34997 697 ft 57 kts 310°
2026-04-23 19:34 38.71549 -9.35177 525 ft 59 kts 342°
2026-04-23 19:34 38.72292 -9.35438 328 ft 49 kts 343°
2026-04-23 19:35 38.72697 -9.35582 450 ft 61 kts 335°
2026-04-23 19:35 38.73079 -9.35706 671 ft 53 kts 336°
2026-04-23 19:35 38.73437 -9.35850 808 ft 59 kts 332°
2026-04-23 19:35 38.73835 -9.36050 947 ft 65 kts 342°
2026-04-23 19:36 38.74287 -9.36252 1019 ft 69 kts 316°
2026-04-23 19:36 38.74388 -9.36838 1016 ft 77 kts 262°
2026-04-23 19:36 38.74114 -9.37431 1030 ft 85 kts 215°
2026-04-23 19:36 38.73518 -9.37393 977 ft 90 kts 162°
2026-04-23 19:37 38.72930 -9.37096 949 ft 88 kts 165°
2026-04-23 19:37 38.72366 -9.36824 966 ft 84 kts 166°
2026-04-23 19:37 38.71811 -9.36587 996 ft 83 kts 168°
2026-04-23 19:37 38.71266 -9.36346 983 ft 79 kts 162°
2026-04-23 19:38 38.70817 -9.36012 927 ft 73 kts 129°
2026-04-23 19:38 38.70713 -9.35410 830 ft 70 kts 84°
2026-04-23 19:38 38.70903 -9.34949 712 ft 55 kts
2026-04-23 19:38 38.71276 -9.35073 564 ft 61 kts 335°
2026-04-23 19:39 38.71664 -9.35208 421 ft 57 kts 337°
2026-04-23 19:39 38.72025 -9.35344 328 ft 46 kts 346°
2026-04-23 19:39 38.72277 -9.35432 328 ft 20 kts 343°
2026-04-23 19:39 38.72324 -9.35384 328 ft 8 kts 70°
2026-04-23 19:40 38.72309 -9.35336 328 ft 10 kts 97°
2026-04-23 19:40 38.72318 -9.35269 328 ft 7 kts 74°
2026-04-23 19:40 38.72324 -9.35258 328 ft 0 kts 322°